Time;durP1;ratioP1;P1;durP2;ratioP2;P2;SDS_P1;SDS_P2;PMS_P1;PMS_P2;Temp;Humidity;BMP_temperature;BMP_pressure;BME280_temperature;BME280_humidity;BME280_pressure;Samples;Min_cycle;Max_cycle;Signal;HPM_P1;HPM_P2
2022/09/17 00:01:41;;;;;;;7.57;2.07;;;;;;;10.92;100.00;101272.78;5215261;28;20134;-84
2022/09/17 00:04:12;;;;;;;10.13;2.63;;;;;;;10.83;100.00;101267.13;5197699;28;20109;-82
2022/09/17 00:06:43;;;;;;;9.07;2.67;;;;;;;10.91;100.00;101276.34;5197361;28;20030;-82
2022/09/17 00:09:15;;;;;;;11.03;3.30;;;;;;;10.88;100.00;101283.44;5196996;28;20030;-82
2022/09/17 00:11:46;;;;;;;10.87;2.63;;;;;;;10.70;100.00;101280.00;5195965;28;20132;-82
2022/09/17 00:14:18;;;;;;;9.17;3.60;;;;;;;10.86;100.00;101290.53;5196244;28;20062;-81
2022/09/17 00:16:49;;;;;;;11.10;2.10;;;;;;;10.79;100.00;101286.53;5196475;28;20034;-84
2022/09/17 00:19:22;;;;;;;9.97;2.97;;;;;;;10.70;100.00;101290.50;5196458;28;20026;-79
2022/09/17 00:21:53;;;;;;;7.87;2.70;;;;;;;10.78;100.00;101282.25;5197434;28;20038;-84
2022/09/17 00:24:24;;;;;;;10.57;2.43;;;;;;;10.80;100.00;101285.63;5196557;28;20034;-77
2022/09/17 00:26:56;;;;;;;12.03;2.73;;;;;;;10.74;100.00;101288.56;5196044;28;20023;-81
2022/09/17 00:29:27;;;;;;;12.33;2.40;;;;;;;10.84;100.00;101281.91;5196708;28;20397;-71
2022/09/17 00:31:58;;;;;;;16.47;2.43;;;;;;;10.89;100.00;101287.72;5197354;28;20430;-83
2022/09/17 00:34:29;;;;;;;11.67;2.70;;;;;;;10.83;100.00;101282.84;5196951;28;20034;-81
2022/09/17 00:37:00;;;;;;;10.30;2.53;;;;;;;10.96;100.00;101300.53;5196108;28;20037;-84
2022/09/17 00:39:32;;;;;;;8.07;3.23;;;;;;;10.86;100.00;101294.91;5196054;28;20030;-82
2022/09/17 00:42:09;;;;;;;6.30;1.60;;;;;;;10.91;100.00;101292.88;5193585;28;20030;-79
2022/09/17 00:44:43;;;;;;;10.10;2.53;;;;;;;10.93;100.00;101300.66;5193374;28;20038;-81
2022/09/17 00:47:31;;;;;;;15.25;2.92;;;;;;;10.86;100.00;101308.00;5195831;28;20026;-82
2022/09/17 00:50:20;;;;;;;13.50;2.77;;;;;;;10.93;100.00;101293.66;5194215;28;20037;-83
2022/09/17 00:53:04;;;;;;;14.00;2.77;;;;;;;10.94;100.00;101286.66;5195653;28;20381;-84
2022/09/17 00:55:39;;;;;;;9.97;2.50;;;;;;;10.85;100.00;101293.22;5194862;28;20113;-84
2022/09/17 00:58:13;;;;;;;8.20;2.10;;;;;;;10.69;100.00;101293.19;5195188;28;20077;-82
2022/09/17 01:00:46;;;;;;;11.07;2.80;;;;;;;10.93;100.00;101303.28;5195784;28;20122;-85
2022/09/17 01:03:17;;;;;;;13.03;2.30;;;;;;;10.91;100.00;101308.59;5195034;28;20034;-72
2022/09/17 01:05:51;;;;;;;11.97;2.10;;;;;;;10.95;100.00;101309.28;5196754;28;20049;-83
2022/09/17 01:08:59;;;;;;;11.73;3.03;;;;;;;10.95;100.00;101299.66;5195974;28;20022;-77
2022/09/17 01:12:01;;;;;;;9.93;2.67;;;;;;;10.87;100.00;101301.88;5193846;28;20074;-84
2022/09/17 01:15:07;;;;;;;12.17;2.77;;;;;;;10.97;100.00;101308.28;5194778;28;20026;-82
2022/09/17 01:17:44;;;;;;;11.25;2.30;;;;;;;10.97;100.00;101310.06;5194535;28;20081;-80
2022/09/17 01:20:35;;;;;;;9.70;2.57;;;;;;;10.86;100.00;101301.00;5195014;28;20130;-78
2022/09/17 01:23:36;;;;;;;10.67;2.30;;;;;;;10.94;100.00;101303.22;5194980;28;20035;-71
2022/09/17 01:26:35;;;;;;;9.00;2.03;;;;;;;10.93;100.00;101313.75;5194174;28;20374;-81
2022/09/17 01:29:20;;;;;;;15.60;3.37;;;;;;;10.89;100.00;101320.97;5195231;28;20038;-85
2022/09/17 01:31:54;;;;;;;;;;;;;;;11.02;100.00;101323.75;5196628;28;20125;-83
2022/09/17 01:34:48;;;;;;;13.73;3.50;;;;;;;10.95;100.00;101325.00;5194612;28;20324;-78
2022/09/17 01:37:34;;;;;;;11.60;3.07;;;;;;;10.94;100.00;101325.97;5194593;28;20485;-81
2022/09/17 01:40:25;;;;;;;11.90;3.37;;;;;;;10.94;100.00;101316.34;5194387;28;20309;-80
2022/09/17 01:43:04;;;;;;;10.13;2.37;;;;;;;10.91;100.00;101319.09;5194837;28;20040;-83
2022/09/17 01:45:42;;;;;;;15.43;3.47;;;;;;;10.93;100.00;101325.09;5194147;28;20034;-83
2022/09/17 01:48:19;;;;;;;13.00;2.27;;;;;;;10.97;100.00;101325.78;5193884;28;20085;-84
2022/09/17 01:51:04;;;;;;;18.33;3.70;;;;;;;10.92;100.00;101317.31;5194275;28;20049;-80
2022/09/17 01:54:07;;;;;;;;;;;;;;;11.08;100.00;101341.75;5193953;28;20022;-82
2022/09/17 01:56:47;;;;;;;17.60;3.30;;;;;;;10.86;100.00;101331.59;5149216;28;19964;-85
2022/09/17 01:59:31;;;;;;;11.10;2.37;;;;;;;10.90;100.00;101320.03;5193818;28;20054;-78
2022/09/17 02:02:17;;;;;;;10.93;2.75;;;;;;;10.95;100.00;101332.88;5194377;28;20031;-87
2022/09/17 02:04:57;;;;;;;10.93;2.63;;;;;;;10.93;100.00;101329.50;5193970;28;20036;-84
2022/09/17 02:07:31;;;;;;;10.37;2.50;;;;;;;10.91;100.00;101331.38;5194181;28;20424;-81
2022/09/17 02:10:11;;;;;;;16.88;3.38;;;;;;;10.82;100.00;101323.03;5193504;28;20394;-79
2022/09/17 02:12:48;;;;;;;12.43;2.60;;;;;;;10.85;100.00;101329.91;5193199;28;20075;-85
2022/09/17 02:15:26;;;;;;;11.20;2.00;;;;;;;10.73;100.00;101331.41;5193309;28;20475;-84
2022/09/17 02:18:24;;;;;;;17.23;2.20;;;;;;;10.75;100.00;101313.84;5193851;28;20088;-77
2022/09/17 02:21:05;;;;;;;12.23;2.77;;;;;;;10.79;100.00;101331.06;5183430;28;20042;-78
2022/09/17 02:23:46;;;;;;;10.80;2.30;;;;;;;10.81;100.00;101318.75;5193161;28;20954;-85
2022/09/17 02:26:19;;;;;;;9.23;2.20;;;;;;;10.82;100.00;101324.84;5192102;28;20038;-74
2022/09/17 02:28:58;;;;;;;5.83;2.07;;;;;;;10.83;100.00;101327.38;5192224;28;20026;-77
2022/09/17 02:31:30;;;;;;;10.47;2.30;;;;;;;10.71;100.00;101328.88;5193562;28;20038;-85
2022/09/17 02:34:04;;;;;;;8.57;2.63;;;;;;;10.84;100.00;101329.06;5193334;28;20029;-72
2022/09/17 02:36:35;;;;;;;;;;;;;;;10.95;100.00;101341.59;5193710;28;20506;-83
2022/09/17 02:39:08;;;;;;;14.07;2.77;;;;;;;10.80;100.00;101332.78;5193674;28;19918;-74
2022/09/17 02:41:51;;;;;;;9.47;2.03;;;;;;;10.80;100.00;101340.66;5190993;28;20089;-85
2022/09/17 02:44:37;;;;;;;13.00;3.83;;;;;;;10.66;100.00;101344.00;5193288;28;20049;-85
2022/09/17 02:47:19;;;;;;;13.33;2.60;;;;;;;10.79;100.00;101340.72;5193719;28;20019;-75
2022/09/17 02:50:21;;;;;;;10.70;2.73;;;;;;;10.79;100.00;101344.19;5193331;28;20038;-81
2022/09/17 02:53:27;;;;;;;7.80;1.67;;;;;;;10.83;100.00;101348.34;5193137;28;20628;-86
2022/09/17 02:56:03;;;;;;;12.83;2.10;;;;;;;10.65;100.00;101337.91;5192733;28;20031;-82
2022/09/17 02:58:45;;;;;;;10.13;2.40;;;;;;;10.65;100.00;101329.19;5195190;28;20026;-77
2022/09/17 03:02:01;;;;;;;12.07;2.33;;;;;;;10.73;100.00;101336.66;5195560;28;20034;-84
2022/09/17 03:04:35;;;;;;;10.53;2.47;;;;;;;10.67;100.00;101344.81;5166583;28;20125;-80
2022/09/17 03:07:10;;;;;;;15.25;2.22;;;;;;;10.66;100.00;101346.63;5194508;28;20448;-83
2022/09/17 03:09:42;;;;;;;10.33;2.37;;;;;;;10.62;100.00;101340.69;5193425;28;20057;-74
2022/09/17 03:12:14;;;;;;;8.73;2.43;;;;;;;10.62;100.00;101353.78;5193015;28;20038;-83
2022/09/17 03:14:45;;;;;;;10.10;1.50;;;;;;;10.49;100.00;101344.88;5193403;28;20026;-78
2022/09/17 03:17:16;;;;;;;8.97;2.63;;;;;;;10.40;100.00;101341.75;5192502;28;20027;-82
2022/09/17 03:19:47;;;;;;;10.97;2.67;;;;;;;10.48;100.00;101343.16;5193187;28;20033;-77
2022/09/17 03:22:19;;;;;;;11.17;2.13;;;;;;;10.44;100.00;101339.00;5191913;28;20041;-86
2022/09/17 03:24:50;;;;;;;7.83;1.63;;;;;;;10.46;100.00;101344.97;5194176;28;20034;-84
2022/09/17 03:27:21;;;;;;;14.53;3.77;;;;;;;10.50;100.00;101341.31;5192242;28;20469;-82
2022/09/17 03:29:52;;;;;;;9.33;2.17;;;;;;;10.30;100.00;101340.53;5193438;28;20476;-83
2022/09/17 03:32:24;;;;;;;16.70;3.00;;;;;;;10.34;100.00;101336.84;5193273;28;20115;-84
2022/09/17 03:34:55;;;;;;;9.57;2.37;;;;;;;10.34;100.00;101335.97;5192890;28;20030;-80
2022/09/17 03:37:26;;;;;;;9.73;2.27;;;;;;;10.28;100.00;101335.38;5193111;28;20390;-86
2022/09/17 03:39:57;;;;;;;10.43;2.60;;;;;;;10.31;100.00;101331.75;5194427;28;20516;-82
2022/09/17 03:42:29;;;;;;;12.90;2.40;;;;;;;10.38;100.00;101343.63;5193821;28;20033;-84
2022/09/17 03:45:00;;;;;;;12.47;2.10;;;;;;;10.35;100.00;101335.91;5193339;28;20026;-82
2022/09/17 03:47:31;;;;;;;15.40;2.80;;;;;;;10.22;100.00;101324.38;5212263;28;20030;-73
2022/09/17 03:50:04;;;;;;;11.27;1.80;;;;;;;10.21;100.00;101325.31;5213816;28;20034;-83
2022/09/17 03:52:35;;;;;;;9.77;2.30;;;;;;;10.11;100.00;101335.38;5220345;28;20056;-81
2022/09/17 03:55:07;;;;;;;10.63;1.90;;;;;;;10.25;100.00;101337.28;5216392;28;20029;-85
2022/09/17 03:57:38;;;;;;;13.17;1.93;;;;;;;10.24;100.00;101340.84;5217332;28;20030;-82
2022/09/17 04:00:11;;;;;;;13.67;2.83;;;;;;;10.10;100.00;101334.53;5217621;28;20022;-81
2022/09/17 04:02:43;;;;;;;12.07;2.17;;;;;;;10.24;100.00;101343.47;5217829;28;20026;-82
2022/09/17 04:05:14;;;;;;;9.40;2.03;;;;;;;10.23;100.00;101342.59;5216683;28;20591;-80
2022/09/17 04:07:45;;;;;;;11.97;2.50;;;;;;;10.04;100.00;101356.63;5216960;28;20034;-78
2022/09/17 04:10:17;;;;;;;10.13;2.00;;;;;;;10.17;100.00;101346.38;5215372;28;20057;-77
2022/09/17 04:12:48;;;;;;;10.17;2.70;;;;;;;10.15;100.00;101339.53;5216912;28;20030;-85
2022/09/17 04:15:19;;;;;;;9.30;1.33;;;;;;;10.05;100.00;101349.63;5216471;28;20365;-82
2022/09/17 04:17:55;;;;;;;13.90;2.03;;;;;;;10.13;100.00;101357.94;5217489;28;20049;-84
2022/09/17 04:20:26;;;;;;;10.30;2.27;;;;;;;9.95;100.00;101359.69;5217234;28;20481;-78
2022/09/17 04:22:58;;;;;;;11.80;2.47;;;;;;;9.96;100.00;101352.69;5216827;28;20029;-77
2022/09/17 04:25:29;;;;;;;10.80;3.13;;;;;;;10.04;100.00;101351.38;5215263;28;20377;-76
2022/09/17 04:28:01;;;;;;;8.63;2.17;;;;;;;10.10;100.00;101365.94;5215773;28;20069;-77
2022/09/17 04:30:32;;;;;;;10.67;2.57;;;;;;;10.06;100.00;101353.94;5215893;28;20030;-77
2022/09/17 04:33:04;;;;;;;10.50;2.30;;;;;;;9.85;100.00;101351.44;5216786;28;20113;-86
2022/09/17 04:35:35;;;;;;;10.00;2.60;;;;;;;10.09;100.00;101358.19;5215587;28;20025;-80
2022/09/17 04:38:08;;;;;;;7.90;1.63;;;;;;;10.08;100.00;101362.56;5215880;28;20033;-82
2022/09/17 04:40:41;;;;;;;7.83;1.70;;;;;;;10.11;100.00;101364.16;5213547;28;20775;-82
2022/09/17 04:43:12;;;;;;;11.60;2.13;;;;;;;9.96;100.00;101368.38;5215187;28;20088;-76
2022/09/17 04:45:46;;;;;;;11.93;1.83;;;;;;;10.08;100.00;101373.03;5215622;28;20022;-84
2022/09/17 04:48:17;;;;;;;11.00;2.40;;;;;;;10.13;100.00;101378.00;5211857;28;20068;-73
2022/09/17 04:50:48;;;;;;;16.73;2.80;;;;;;;10.17;100.00;101372.53;5215555;28;20388;-82
2022/09/17 04:53:19;;;;;;;10.47;2.20;;;;;;;10.13;100.00;101363.16;5213881;28;20026;-77
2022/09/17 04:55:51;;;;;;;13.20;2.43;;;;;;;10.15;100.00;101358.72;5215288;28;20405;-77
2022/09/17 04:58:22;;;;;;;9.30;2.50;;;;;;;10.13;100.00;101344.00;5215711;28;20151;-83
2022/09/17 05:00:53;;;;;;;13.43;2.53;;;;;;;10.10;100.00;101360.72;5216608;28;20076;-83
2022/09/17 05:03:25;;;;;;;12.40;2.40;;;;;;;10.13;100.00;101354.47;5215307;28;20063;-81
2022/09/17 05:05:56;;;;;;;13.07;2.50;;;;;;;10.20;100.00;101360.22;5216075;28;20045;-82
2022/09/17 05:08:27;;;;;;;8.60;1.87;;;;;;;9.95;100.00;101361.47;5216450;28;20029;-85
2022/09/17 05:10:58;;;;;;;8.87;2.30;;;;;;;9.97;100.00;101367.44;5215070;28;20119;-82
2022/09/17 05:13:30;;;;;;;8.90;2.37;;;;;;;10.09;100.00;101374.69;5215129;28;20046;-83
2022/09/17 05:16:01;;;;;;;12.43;2.23;;;;;;;9.99;100.00;101368.22;5215369;28;20091;-82
2022/09/17 05:18:32;;;;;;;8.70;2.33;;;;;;;9.86;100.00;101375.84;5214491;28;20026;-76
2022/09/17 05:21:04;;;;;;;13.73;3.03;;;;;;;9.85;100.00;101376.75;5215752;28;20035;-81
2022/09/17 05:23:35;;;;;;;11.43;2.87;;;;;;;9.99;100.00;101370.84;5214084;28;20034;-83
2022/09/17 05:26:07;;;;;;;9.53;2.00;;;;;;;9.92;100.00;101376.38;5214890;28;20097;-77
2022/09/17 05:28:38;;;;;;;11.70;1.97;;;;;;;9.99;100.00;101383.94;5214859;28;20109;-82
2022/09/17 05:31:09;;;;;;;14.03;2.43;;;;;;;9.97;100.00;101394.47;5215669;28;20033;-80
2022/09/17 05:33:40;;;;;;;13.50;2.07;;;;;;;9.80;100.00;101392.66;5215080;28;20064;-84
2022/09/17 05:36:12;;;;;;;9.17;1.77;;;;;;;9.97;100.00;101401.47;5214943;28;20619;-80
2022/09/17 05:38:43;;;;;;;9.90;2.97;;;;;;;9.93;100.00;101387.72;5216685;28;20534;-81
2022/09/17 05:41:14;;;;;;;11.57;3.27;;;;;;;9.92;100.00;101399.09;5215734;28;20617;-81
2022/09/17 05:43:45;;;;;;;9.03;1.80;;;;;;;9.92;100.00;101389.47;5213757;28;20477;-74
2022/09/17 05:46:17;;;;;;;10.87;2.77;;;;;;;10.00;100.00;101396.94;5214016;28;20460;-75
2022/09/17 05:48:48;;;;;;;8.33;1.80;;;;;;;9.98;100.00;101397.94;5214051;28;20561;-79
2022/09/17 05:51:19;;;;;;;10.73;1.97;;;;;;;10.01;100.00;101397.78;5214232;28;20045;-84
2022/09/17 05:53:53;;;;;;;11.43;2.07;;;;;;;10.02;100.00;101402.09;5212947;28;20034;-80
2022/09/17 05:56:24;;;;;;;9.05;1.98;;;;;;;10.02;100.00;101405.56;5214203;28;20642;-77
2022/09/17 05:58:56;;;;;;;9.47;2.70;;;;;;;9.96;100.00;101415.47;5215150;28;20046;-84
2022/09/17 06:01:27;;;;;;;13.33;2.97;;;;;;;10.04;100.00;101408.09;5214930;28;20026;-83
2022/09/17 06:04:01;;;;;;;10.40;2.20;;;;;;;10.08;100.00;101417.50;5214876;28;20480;-83
2022/09/17 06:06:32;;;;;;;18.88;2.80;;;;;;;10.11;100.00;101429.59;5213956;28;20141;-83
2022/09/17 06:09:05;;;;;;;11.77;2.90;;;;;;;10.03;100.00;101436.06;5214458;28;20018;-81
2022/09/17 06:11:36;;;;;;;10.27;2.73;;;;;;;10.12;100.00;101433.91;5213191;28;20142;-83
2022/09/17 06:14:08;;;;;;;9.97;2.53;;;;;;;10.09;100.00;101437.50;5214452;28;20101;-80
2022/09/17 06:16:40;;;;;;;13.47;2.60;;;;;;;10.06;100.00;101427.19;5213551;28;20042;-83
2022/09/17 06:19:11;;;;;;;12.23;2.47;;;;;;;9.99;100.00;101416.19;5214497;28;20058;-82
2022/09/17 06:21:42;;;;;;;6.63;2.00;;;;;;;10.10;100.00;101434.00;5214299;28;20030;-84
2022/09/17 06:24:13;;;;;;;11.30;2.77;;;;;;;10.13;100.00;101425.13;5213957;28;20026;-80
2022/09/17 06:26:45;;;;;;;11.07;1.77;;;;;;;10.05;100.00;101423.72;5212875;28;20601;-80
2022/09/17 06:29:16;;;;;;;10.50;1.90;;;;;;;10.19;100.00;101429.22;5213682;28;20385;-82
2022/09/17 06:31:48;;;;;;;10.90;2.33;;;;;;;10.21;100.00;101432.63;5213688;28;20033;-74
2022/09/17 06:34:19;;;;;;;7.17;1.60;;;;;;;10.08;100.00;101425.38;5212756;28;20060;-84
2022/09/17 06:36:50;;;;;;;12.27;2.37;;;;;;;10.06;100.00;101424.59;5213808;28;20447;-78
2022/09/17 06:39:23;;;;;;;14.57;3.27;;;;;;;10.00;100.00;101427.50;5212952;28;20489;-78
2022/09/17 06:41:54;;;;;;;9.40;2.27;;;;;;;10.12;100.00;101420.84;5211476;28;20042;-83
2022/09/17 06:44:25;;;;;;;11.67;1.97;;;;;;;10.07;100.00;101426.25;5213297;28;20040;-76
2022/09/17 06:46:57;;;;;;;9.00;2.00;;;;;;;10.22;100.00;101426.47;5212478;28;20101;-78
2022/09/17 06:49:30;;;;;;;10.70;2.03;;;;;;;10.23;100.00;101425.53;5214197;28;20137;-78
2022/09/17 06:52:01;;;;;;;8.57;1.53;;;;;;;10.31;100.00;101428.63;5212253;28;20038;-83
2022/09/17 06:54:32;;;;;;;11.63;2.53;;;;;;;10.35;100.00;101427.53;5212178;28;20041;-79
2022/09/17 06:57:04;;;;;;;14.80;2.37;;;;;;;10.40;100.00;101419.47;5212794;28;20022;-76
2022/09/17 06:59:36;;;;;;;14.17;2.00;;;;;;;10.42;100.00;101417.59;5212938;28;20026;-82
2022/09/17 07:02:08;;;;;;;9.37;1.77;;;;;;;10.38;100.00;101408.22;5214467;28;20099;-82
2022/09/17 07:04:39;;;;;;;13.00;2.50;;;;;;;10.31;100.00;101410.31;5213668;28;20034;-75
2022/09/17 07:07:10;;;;;;;9.23;1.77;;;;;;;10.55;100.00;101422.25;5213520;28;20071;-81
2022/09/17 07:09:41;;;;;;;8.40;2.03;;;;;;;10.70;100.00;101426.72;5212334;28;20046;-76
2022/09/17 07:12:13;;;;;;;8.23;2.20;;;;;;;10.87;100.00;101433.69;5213443;28;20034;-79
2022/09/17 07:14:44;;;;;;;10.50;1.90;;;;;;;10.94;100.00;101428.16;5213525;28;20113;-80
2022/09/17 07:17:16;;;;;;;12.70;1.50;;;;;;;10.93;100.00;101432.56;5211158;28;20560;-73
2022/09/17 07:19:47;;;;;;;5.03;1.40;;;;;;;11.01;100.00;101430.38;5213092;28;20109;-71
2022/09/17 07:22:18;;;;;;;8.17;2.33;;;;;;;10.98;100.00;101429.69;5213132;28;20033;-74
2022/09/17 07:24:49;;;;;;;9.47;2.73;;;;;;;11.07;100.00;101425.72;5212048;28;20026;-74
2022/09/17 07:27:21;;;;;;;9.83;1.83;;;;;;;11.18;100.00;101440.91;5214433;28;20464;-75
2022/09/17 07:29:52;;;;;;;7.87;2.13;;;;;;;11.31;100.00;101441.94;5216586;28;20452;-74
2022/09/17 07:32:23;;;;;;;8.93;2.40;;;;;;;11.36;100.00;101433.84;5216894;28;20367;-74
2022/09/17 07:34:55;;;;;;;11.83;2.50;;;;;;;11.59;100.00;101444.88;5217220;28;20408;-75
2022/09/17 07:37:26;;;;;;;9.47;2.43;;;;;;;11.72;100.00;101429.28;5216688;28;20057;-80
2022/09/17 07:39:58;;;;;;;11.87;2.00;;;;;;;11.85;100.00;101432.91;5216228;28;20092;-81
2022/09/17 07:42:30;;;;;;;10.67;2.57;;;;;;;11.92;100.00;101406.34;5216389;28;20112;-77
2022/09/17 07:45:02;;;;;;;9.47;1.97;;;;;;;12.34;100.00;101435.47;5217208;28;20029;-80
2022/09/17 07:47:37;;;;;;;13.83;2.03;;;;;;;12.67;100.00;101426.56;5215864;28;20034;-78
2022/09/17 07:50:09;;;;;;;7.43;2.37;;;;;;;12.85;100.00;101430.78;5215980;28;20026;-71
2022/09/17 07:52:47;;;;;;;4.47;1.37;;;;;;;13.43;100.00;101426.38;5216171;28;20033;-74
2022/09/17 07:55:19;;;;;;;13.00;2.13;;;;;;;13.24;100.00;101408.28;5218221;28;20025;-70
2022/09/17 07:57:51;;;;;;;9.63;1.60;;;;;;;13.55;100.00;101437.94;5217239;28;20481;-74
2022/09/17 08:00:22;;;;;;;9.90;2.23;;;;;;;13.39;100.00;101437.19;5215288;28;20034;-74
2022/09/17 08:02:54;;;;;;;10.00;1.63;;;;;;;14.11;100.00;101435.31;5216060;28;20037;-75
2022/09/17 08:05:26;;;;;;;8.93;1.40;;;;;;;14.73;100.00;101430.41;5215492;28;20034;-76
2022/09/17 08:07:58;;;;;;;7.27;1.30;;;;;;;16.01;100.00;101433.84;5215651;28;20018;-76
2022/09/17 08:10:29;;;;;;;10.27;1.63;;;;;;;16.72;100.00;101435.59;5214457;28;20137;-75
2022/09/17 08:13:00;;;;;;;4.83;1.23;;;;;;;17.68;86.65;101428.25;5215356;28;20037;-71
2022/09/17 08:15:32;;;;;;;9.77;2.10;;;;;;;18.22;80.16;101415.91;5215339;28;20029;-74
2022/09/17 08:18:03;;;;;;;4.97;1.47;;;;;;;19.15;74.89;101432.88;5214802;28;20026;-74
2022/09/17 08:20:34;;;;;;;6.57;1.63;;;;;;;19.62;71.97;101431.47;5215075;28;20144;-76
2022/09/17 08:23:05;;;;;;;5.22;1.40;;;;;;;20.09;60.14;101442.44;5215883;28;20107;-76
2022/09/17 08:25:37;;;;;;;8.25;2.28;;;;;;;20.97;58.07;101430.78;5214660;28;20065;-77
2022/09/17 08:28:08;;;;;;;5.20;1.42;;;;;;;21.47;55.45;101434.03;5215930;28;20674;-75
2022/09/17 08:30:39;;;;;;;4.38;1.50;;;;;;;22.18;51.94;101436.06;5210922;28;20535;-77
2022/09/17 08:33:10;;;;;;;6.47;1.35;;;;;;;22.80;51.61;101431.63;5204284;28;20621;-75
2022/09/17 08:35:49;;;;;;;7.63;1.70;;;;;;;22.09;51.69;101436.97;5215176;28;20045;-77
2022/09/17 08:38:20;;;;;;;4.68;1.90;;;;;;;23.61;47.41;101440.28;5200524;28;20042;-74
2022/09/17 08:41:10;;;;;;;5.07;1.20;;;;;;;24.39;48.61;101438.13;5194120;28;20446;-78
2022/09/17 08:44:03;;;;;;;7.20;1.60;;;;;;;25.10;48.53;101439.28;5194591;28;20076;-79
2022/09/17 08:46:37;;;;;;;5.30;1.60;;;;;;;24.97;42.63;101444.38;5194343;28;20032;-76
2022/09/17 08:49:46;;;;;;;6.25;1.30;;;;;;;24.77;47.31;101456.28;5207459;28;20037;-73
2022/09/17 08:52:23;;;;;;;4.88;1.45;;;;;;;25.69;41.13;101447.03;5203443;28;20057;-72
2022/09/17 08:55:17;;;;;;;3.33;1.02;;;;;;;26.12;39.48;101451.88;5214378;28;20056;-70
2022/09/17 08:58:28;;;;;;;7.78;1.50;;;;;;;26.40;43.62;101454.00;5199417;28;20531;-75
2022/09/17 09:01:24;;;;;;;3.95;1.02;;;;;;;26.74;42.24;101449.09;5187016;28;20042;-74
2022/09/17 09:04:06;;;;;;;3.25;1.08;;;;;;;26.52;37.17;101450.84;5194323;28;20030;-75
2022/09/17 09:07:10;;;;;;;3.95;1.08;;;;;;;26.27;42.76;101454.59;5193129;28;20041;-76
2022/09/17 09:09:50;;;;;;;10.45;1.63;;;;;;;24.81;40.86;101456.78;5195179;28;20033;-77
2022/09/17 09:12:25;;;;;;;5.15;1.17;;;;;;;23.43;41.87;101454.59;5214368;28;20034;-76
2022/09/17 09:15:04;;;;;;;4.43;1.20;;;;;;;22.02;46.13;101462.56;5215186;28;20030;-77
2022/09/17 09:17:45;;;;;;;3.40;1.10;;;;;;;22.09;46.87;101456.47;5213754;28;20914;-75
2022/09/17 09:20:28;;;;;;;6.13;1.83;;;;;;;20.77;50.75;101459.28;5215723;28;20032;-71
2022/09/17 09:23:14;;;;;;;6.53;1.55;;;;;;;21.25;50.55;101448.59;5218607;28;20777;-73
2022/09/17 09:26:17;;;;;;;3.47;1.00;;;;;;;21.08;51.46;101464.38;5211785;28;20029;-72
2022/09/17 09:29:10;;;;;;;4.60;1.20;;;;;;;21.47;51.81;101460.66;5214542;28;20049;-74
2022/09/17 09:31:53;;;;;;;3.75;1.23;;;;;;;23.11;49.89;101462.28;5213020;28;20511;-76
2022/09/17 09:34:27;;;;;;;4.07;1.27;;;;;;;24.27;46.24;101460.91;5214062;28;20037;-77
2022/09/17 09:37:15;;;;;;;6.43;1.45;;;;;;;25.26;44.40;101461.66;5214656;28;20287;-70
2022/09/17 09:39:49;;;;;;;3.92;1.20;;;;;;;25.06;42.31;101458.56;5212809;28;20136;-76
2022/09/17 09:42:31;;;;;;;4.32;1.17;;;;;;;25.76;41.82;101464.09;5213842;28;20030;-76
2022/09/17 09:45:14;;;;;;;6.15;1.20;;;;;;;25.33;44.28;101462.63;5210744;28;20752;-76
2022/09/17 09:48:10;;;;;;;3.33;1.25;;;;;;;24.90;42.77;101462.94;5199018;28;20026;-76
2022/09/17 09:51:20;;;;;;;5.97;1.23;;;;;;;24.61;42.61;101459.84;5204799;28;20018;-78
2022/09/17 09:54:08;;;;;;;4.93;1.20;;;;;;;23.57;42.89;101453.13;5202833;28;20427;-77
2022/09/17 09:56:57;;;;;;;4.40;1.88;;;;;;;22.66;45.42;101453.56;5201588;28;20099;-77
2022/09/17 09:59:28;;;;;;;4.35;1.00;;;;;;;21.06;49.75;101470.84;5212338;28;20567;-77
2022/09/17 10:01:59;;;;;;;10.02;1.58;;;;;;;21.00;55.04;101465.09;5208159;28;20034;-76
2022/09/17 10:04:31;;;;;;;4.60;1.33;;;;;;;21.22;53.38;101468.38;5193466;28;20034;-76
2022/09/17 10:07:08;;;;;;;4.43;1.25;;;;;;;21.66;49.85;101468.72;5193870;28;20069;-76
2022/09/17 10:09:45;;;;;;;6.53;1.63;;;;;;;21.97;51.68;101460.38;5192603;28;20030;-76
2022/09/17 10:12:17;;;;;;;3.33;0.95;;;;;;;22.20;50.39;101454.56;5212358;28;20132;-74
2022/09/17 10:14:48;;;;;;;3.30;1.00;;;;;;;22.16;48.47;101459.38;5199042;28;20121;-75
2022/09/17 10:17:24;;;;;;;4.70;1.17;;;;;;;22.83;48.59;101459.84;5212756;28;20161;-78
2022/09/17 10:20:07;;;;;;;3.55;0.95;;;;;;;22.64;48.96;101461.72;5212230;28;20112;-77
2022/09/17 10:22:41;;;;;;;2.22;0.88;;;;;;;22.90;45.22;101457.38;5211271;28;20382;-75
2022/09/17 10:25:18;;;;;;;;;;;;;;;24.01;46.31;101460.03;5211796;28;20629;-78
2022/09/17 10:27:50;;;;;;;4.03;1.10;;;;;;;23.01;44.29;101451.75;5211651;28;20075;-80
2022/09/17 10:30:23;;;;;;;3.28;1.10;;;;;;;22.70;43.75;101452.25;5202766;28;20502;-74
2022/09/17 10:33:12;;;;;;;4.77;1.10;;;;;;;23.67;44.79;101448.47;5204775;28;20038;-73
2022/09/17 10:35:57;;;;;;;4.22;1.05;;;;;;;23.19;45.62;101450.81;5204112;28;20026;-73
2022/09/17 10:38:30;;;;;;;;;;;;;;;23.95;45.92;101451.84;5204249;28;20362;-74
2022/09/17 10:41:12;;;;;;;6.30;1.70;;;;;;;22.50;47.11;101451.63;5203774;28;19921;-78
2022/09/17 10:43:44;;;;;;;4.53;0.98;;;;;;;21.27;52.94;101460.78;5204627;28;20045;-76
2022/09/17 10:46:35;;;;;;;7.28;1.50;;;;;;;20.95;52.88;101466.50;5204522;28;20674;-78
2022/09/17 10:49:26;;;;;;;2.58;1.00;;;;;;;20.67;55.03;101460.13;5204852;28;21392;-78
2022/09/17 10:52:07;;;;;;;3.50;0.98;;;;;;;20.38;56.60;101454.88;5204336;28;20030;-75
2022/09/17 10:55:04;;;;;;;4.70;1.10;;;;;;;20.36;55.20;101462.16;5203389;28;20034;-73
2022/09/17 10:57:41;;;;;;;3.03;0.73;;;;;;;20.59;54.76;101462.69;5203444;28;20113;-76
2022/09/17 11:00:18;;;;;;;5.28;1.20;;;;;;;20.29;57.76;101446.78;5204256;28;20500;-73
2022/09/17 11:03:12;;;;;;;3.90;1.10;;;;;;;20.89;54.32;101451.97;5206173;28;20030;-72
2022/09/17 11:06:34;;;;;;;3.05;0.90;;;;;;;20.72;55.88;101456.22;5208142;28;20034;-73
2022/09/17 11:09:37;;;;;;;3.88;0.80;;;;;;;20.37;53.82;101451.38;5166521;28;20063;-71
2022/09/17 11:12:18;;;;;;;2.63;0.60;;;;;;;20.43;53.33;101452.63;5174489;28;20452;-68
2022/09/17 11:14:53;;;;;;;4.93;0.80;;;;;;;20.26;55.14;101455.03;5207844;28;20029;-69
2022/09/17 11:17:24;;;;;;;;;;;;;;;20.90;52.04;101453.63;5208071;28;20037;-70
2022/09/17 11:20:03;;;;;;;4.08;0.70;;;;;;;20.24;52.43;101448.16;5205987;28;20295;-72
2022/09/17 11:23:00;;;;;;;5.15;0.98;;;;;;;20.38;52.15;101433.59;5207906;28;20085;-72
2022/09/17 11:25:59;;;;;;;5.03;0.60;;;;;;;19.20;54.46;101437.81;5207700;28;20061;-72
2022/09/17 11:28:58;;;;;;;3.17;0.75;;;;;;;20.14;54.32;101442.88;5207129;28;20394;-75
2022/09/17 11:31:53;;;;;;;5.55;0.85;;;;;;;19.42;54.53;101427.94;5206809;28;20041;-77
2022/09/17 11:34:28;;;;;;;3.08;0.77;;;;;;;19.79;53.12;101426.47;5212651;28;20048;-79
2022/09/17 11:37:15;;;;;;;5.18;1.20;;;;;;;19.93;54.27;101435.84;5208313;28;20116;-86
2022/09/17 11:39:59;;;;;;;4.60;1.15;;;;;;;19.94;54.18;101435.69;5207764;28;20041;-82
2022/09/17 11:42:38;;;;;;;3.97;1.60;;;;;;;19.89;52.99;101429.13;5207787;28;20041;-79
2022/09/17 11:45:23;;;;;;;3.73;1.00;;;;;;;19.99;53.70;101435.28;5208987;28;20021;-79
2022/09/17 11:48:03;;;;;;;4.43;0.77;;;;;;;19.38;55.03;101430.03;5208638;28;20384;-79
2022/09/17 11:51:03;;;;;;;6.43;1.07;;;;;;;19.79;55.96;101435.25;5209361;28;20022;-78
2022/09/17 11:53:41;;;;;;;4.15;1.30;;;;;;;19.84;54.01;101442.84;5207385;28;20030;-78
2022/09/17 11:56:25;;;;;;;6.22;1.45;;;;;;;19.78;53.32;101430.94;5207187;28;20033;-82
2022/09/17 11:59:02;;;;;;;6.93;1.40;;;;;;;19.66;52.96;101424.06;5208561;28;20140;-81
2022/09/17 12:01:57;;;;;;;6.87;1.10;;;;;;;20.02;52.64;101428.84;5208556;28;20301;-82
2022/09/17 12:04:52;;;;;;;3.37;1.13;;;;;;;19.86;55.40;101432.06;5207394;28;20037;-78
2022/09/17 12:07:43;;;;;;;;;;;;;;;20.15;54.00;101440.06;5209029;28;20208;-79